Time;durP1;ratioP1;P1;durP2;ratioP2;P2;SDS_P1;SDS_P2;PMS_P1;PMS_P2;Temp;Humidity;BMP_temperature;BMP_pressure;BME280_temperature;BME280_humidity;BME280_pressure;Samples;Min_cycle;Max_cycle;Signal;HPM_P1;HPM_P2
2023/12/02 00:01:11;;;;;;;29.30;18.43;;;;;;;5.44;59.84;96020.13;5061157;28;20213;-71
2023/12/02 00:03:37;;;;;;;32.13;19.03;;;;;;;5.46;59.90;96013.00;5067958;28;20421;-71
2023/12/02 00:06:03;;;;;;;31.67;19.10;;;;;;;5.48;59.48;96006.69;5056766;28;20277;-71
2023/12/02 00:08:28;;;;;;;26.80;17.17;;;;;;;5.49;59.62;96002.31;5065141;28;20190;-71
2023/12/02 00:10:54;;;;;;;28.57;17.33;;;;;;;5.51;59.95;96006.41;5068284;28;20483;-71
2023/12/02 00:13:19;;;;;;;31.00;18.77;;;;;;;5.46;59.71;96013.00;5066809;28;20286;-73
2023/12/02 00:15:45;;;;;;;31.13;17.50;;;;;;;5.44;59.54;96015.78;5047216;28;20198;-72
2023/12/02 00:18:10;;;;;;;30.90;17.90;;;;;;;5.42;59.61;96015.09;5031346;28;20206;-72
2023/12/02 00:20:36;;;;;;;29.30;18.40;;;;;;;5.42;59.67;96017.69;5067934;28;20287;-72
2023/12/02 00:23:02;;;;;;;27.63;18.40;;;;;;;5.45;59.60;96024.38;5065741;28;20210;-72
2023/12/02 00:25:27;;;;;;;31.50;18.97;;;;;;;5.42;59.76;96022.09;5059831;28;20178;-72
2023/12/02 00:27:52;;;;;;;31.00;18.90;;;;;;;5.49;59.87;96028.31;5060050;28;20226;-72
2023/12/02 00:30:18;;;;;;;28.63;18.20;;;;;;;5.50;59.34;96027.34;5071797;28;20200;-72
2023/12/02 00:32:43;;;;;;;29.20;18.30;;;;;;;5.51;59.38;96027.19;5053242;28;20182;-73
2023/12/02 00:35:09;;;;;;;25.30;15.70;;;;;;;5.50;59.37;96035.16;5059285;28;20293;-72
2023/12/02 00:37:34;;;;;;;31.33;18.50;;;;;;;5.50;59.24;96035.16;5067845;28;20214;-72
2023/12/02 00:40:00;;;;;;;26.50;17.17;;;;;;;5.52;59.03;96047.03;5067763;28;20309;-72
2023/12/02 00:42:25;;;;;;;27.60;17.00;;;;;;;5.45;58.96;96052.97;5065958;28;20194;-70
2023/12/02 00:44:50;;;;;;;28.03;17.80;;;;;;;5.42;59.31;96038.50;5065469;28;20217;-72
2023/12/02 00:47:16;;;;;;;26.87;16.73;;;;;;;5.38;59.26;96034.53;5056089;28;20190;-72
2023/12/02 00:49:41;;;;;;;30.10;18.07;;;;;;;5.35;59.71;96046.06;5060933;28;20206;-72
2023/12/02 00:52:07;;;;;;;29.50;18.37;;;;;;;5.43;58.90;96044.47;5064550;28;20202;-71
2023/12/02 00:54:34;;;;;;;30.83;18.83;;;;;;;5.41;58.71;96052.44;5071488;28;20840;-70
2023/12/02 00:57:00;;;;;;;29.03;18.80;;;;;;;5.40;58.80;96050.81;5063085;28;20861;-71
2023/12/02 00:59:25;;;;;;;26.97;17.53;;;;;;;5.44;58.78;96046.97;5072494;28;20448;-72
2023/12/02 01:01:51;;;;;;;28.13;17.90;;;;;;;5.45;58.80;96040.78;5071500;28;20201;-72
2023/12/02 01:04:16;;;;;;;27.67;18.47;;;;;;;5.38;59.48;96039.75;5062557;28;20243;-72
2023/12/02 01:06:42;;;;;;;27.97;17.73;;;;;;;5.42;58.93;96035.88;5070311;28;20221;-72
2023/12/02 01:09:07;;;;;;;27.40;18.10;;;;;;;5.40;58.81;96037.00;5070554;28;20182;-71
2023/12/02 01:11:33;;;;;;;25.20;17.10;;;;;;;5.39;58.88;96036.19;5071297;28;20271;-71
2023/12/02 01:13:58;;;;;;;29.73;18.40;;;;;;;5.36;58.88;96049.47;5072285;28;20206;-72
2023/12/02 01:16:23;;;;;;;30.97;18.83;;;;;;;5.37;58.78;96051.09;5072847;28;20232;-72
2023/12/02 01:18:49;;;;;;;27.90;18.80;;;;;;;5.33;59.16;96047.97;5072223;28;20197;-71
2023/12/02 01:21:14;;;;;;;27.57;17.50;;;;;;;5.31;59.62;96057.69;5061476;28;20821;-72
2023/12/02 01:23:40;;;;;;;26.10;17.93;;;;;;;5.34;59.17;96056.59;5070665;28;20182;-70
2023/12/02 01:26:05;;;;;;;23.43;16.63;;;;;;;5.35;58.98;96072.03;5063031;28;20202;-70
2023/12/02 01:28:31;;;;;;;27.23;17.60;;;;;;;5.32;58.99;96068.94;5066978;28;20183;-71
2023/12/02 01:30:56;;;;;;;26.00;16.47;;;;;;;5.27;57.87;96071.13;5051615;28;20293;-71
2023/12/02 01:33:22;;;;;;;23.33;16.57;;;;;;;5.21;58.24;96072.53;5068696;28;20544;-72
2023/12/02 01:35:49;;;;;;;26.97;17.03;;;;;;;5.17;58.65;96066.81;5069560;28;20187;-71
2023/12/02 01:38:14;;;;;;;27.70;18.20;;;;;;;5.22;59.20;96067.22;5069281;28;20734;-71
2023/12/02 01:40:39;;;;;;;27.87;17.23;;;;;;;5.22;58.28;96075.00;5063099;28;20448;-71
2023/12/02 01:43:05;;;;;;;24.30;16.10;;;;;;;5.21;58.57;96082.94;5069602;28;20225;-71
2023/12/02 01:45:30;;;;;;;27.63;17.30;;;;;;;5.18;59.02;96084.03;5062315;28;20178;-73
2023/12/02 01:47:56;;;;;;;27.63;17.00;;;;;;;5.14;58.78;96071.50;5064624;28;20195;-72
2023/12/02 01:50:22;;;;;;;27.10;17.70;;;;;;;5.23;59.57;96062.81;5061639;28;20241;-71
2023/12/02 01:52:47;;;;;;;26.27;18.27;;;;;;;5.29;58.87;96058.81;5066110;28;21093;-72
2023/12/02 01:55:13;;;;;;;25.73;17.40;;;;;;;5.29;58.46;96062.25;5066723;28;20672;-72
2023/12/02 01:57:38;;;;;;;29.03;18.70;;;;;;;5.23;58.76;96063.63;5070757;28;20186;-73
2023/12/02 02:00:05;;;;;;;26.30;16.93;;;;;;;5.21;58.85;96073.38;5064938;28;20222;-71
2023/12/02 02:02:31;;;;;;;25.30;16.70;;;;;;;5.26;58.79;96085.09;5051644;28;20194;-72
2023/12/02 02:04:56;;;;;;;25.10;16.50;;;;;;;5.28;58.82;96086.59;5071237;28;20578;-72
2023/12/02 02:07:22;;;;;;;28.20;17.17;;;;;;;5.26;58.71;96091.13;5062401;28;20247;-70
2023/12/02 02:09:48;;;;;;;27.50;18.10;;;;;;;5.20;58.30;96104.66;5070254;28;20724;-72
2023/12/02 02:12:14;;;;;;;27.57;17.17;;;;;;;5.18;58.81;96098.81;5062113;28;20644;-72
2023/12/02 02:14:39;;;;;;;25.00;15.53;;;;;;;5.24;58.41;96100.84;5068171;28;20464;-72
2023/12/02 02:17:05;;;;;;;25.90;17.50;;;;;;;5.16;57.92;96079.97;5070123;28;20528;-72
2023/12/02 02:19:33;;;;;;;27.13;17.13;;;;;;;5.16;58.76;96079.97;5051533;28;20203;-71
2023/12/02 02:21:59;;;;;;;29.43;16.50;;;;;;;5.20;58.55;96082.13;5062171;28;20182;-72
2023/12/02 02:24:24;;;;;;;26.03;16.83;;;;;;;5.23;58.46;96075.81;5069790;28;20427;-71
2023/12/02 02:26:50;;;;;;;27.00;16.80;;;;;;;5.20;58.38;96086.50;5046564;28;20628;-72
2023/12/02 02:29:16;;;;;;;29.13;17.20;;;;;;;5.23;58.12;96092.19;5059275;28;20947;-72
2023/12/02 02:31:41;;;;;;;24.77;16.30;;;;;;;5.15;58.33;96091.31;5060705;28;20293;-72
2023/12/02 02:34:07;;;;;;;26.10;17.47;;;;;;;5.14;59.01;96092.28;5059787;28;20207;-71
2023/12/02 02:36:32;;;;;;;23.67;16.33;;;;;;;5.14;59.03;96081.88;5064598;28;20198;-71
2023/12/02 02:38:58;;;;;;;27.40;17.00;;;;;;;5.15;58.63;96081.72;5069955;28;20796;-72
2023/12/02 02:41:23;;;;;;;26.37;15.70;;;;;;;5.13;58.27;96101.03;5068287;28;20236;-72
2023/12/02 02:43:49;;;;;;;23.80;14.90;;;;;;;5.03;58.23;96101.91;5061852;28;20676;-71
2023/12/02 02:46:14;;;;;;;23.13;15.80;;;;;;;5.06;58.72;96109.38;5070264;28;20235;-70
2023/12/02 02:48:40;;;;;;;25.47;16.17;;;;;;;5.06;58.49;96111.19;5068521;28;20277;-71
2023/12/02 02:51:05;;;;;;;24.87;15.90;;;;;;;5.10;58.20;96117.72;5069803;28;20578;-72
2023/12/02 02:53:31;;;;;;;25.57;16.00;;;;;;;5.04;57.83;96119.09;5062578;28;20263;-70
2023/12/02 02:55:56;;;;;;;23.87;15.57;;;;;;;4.98;58.43;96109.31;5064583;28;20653;-72
2023/12/02 02:58:22;;;;;;;24.20;15.37;;;;;;;5.00;58.20;96117.78;5060486;28;20238;-71
2023/12/02 03:00:47;;;;;;;24.73;15.73;;;;;;;4.99;58.50;96118.72;5064087;28;20194;-71
2023/12/02 03:03:13;;;;;;;23.60;15.77;;;;;;;4.95;58.97;96117.38;5065625;28;20269;-73
2023/12/02 03:05:38;;;;;;;24.23;14.87;;;;;;;4.96;58.90;96116.41;5068837;28;20640;-72
2023/12/02 03:08:04;;;;;;;22.80;15.70;;;;;;;4.92;58.81;96118.47;5044904;28;20206;-71
2023/12/02 03:10:29;;;;;;;22.10;14.93;;;;;;;4.90;58.57;96107.41;5065180;28;20213;-72
2023/12/02 03:12:55;;;;;;;23.13;15.63;;;;;;;4.90;58.50;96101.44;5056046;28;20267;-72
2023/12/02 03:15:20;;;;;;;21.70;14.80;;;;;;;4.91;58.69;96093.47;5068798;28;20210;-72
2023/12/02 03:17:45;;;;;;;23.73;15.23;;;;;;;4.89;58.57;96100.59;5065461;28;20186;-71
2023/12/02 03:20:11;;;;;;;21.93;14.70;;;;;;;4.88;59.19;96098.16;5053194;28;20214;-73
2023/12/02 03:22:36;;;;;;;21.87;14.90;;;;;;;4.91;58.95;96108.25;5070194;28;20715;-72
2023/12/02 03:25:02;;;;;;;19.83;14.10;;;;;;;4.90;58.61;96117.81;5065762;28;20216;-73
2023/12/02 03:27:27;;;;;;;19.13;13.20;;;;;;;5.01;59.23;96114.22;5067693;28;20187;-71
2023/12/02 03:29:53;;;;;;;26.23;13.67;;;;;;;4.97;58.33;96115.44;5070573;28;20206;-72
2023/12/02 03:32:18;;;;;;;18.27;12.57;;;;;;;4.99;58.98;96117.91;5063597;28;20265;-71
2023/12/02 03:34:44;;;;;;;18.13;12.63;;;;;;;4.99;58.53;96113.53;5064124;28;20202;-71
2023/12/02 03:37:10;;;;;;;18.20;13.47;;;;;;;4.87;58.41;96106.91;5068919;28;20221;-71
2023/12/02 03:39:35;;;;;;;19.07;12.50;;;;;;;4.84;58.21;96104.59;5059065;28;20207;-71
2023/12/02 03:42:01;;;;;;;19.73;13.47;;;;;;;4.95;58.40;96116.56;5062051;28;20436;-71
2023/12/02 03:44:26;;;;;;;18.87;13.50;;;;;;;5.00;58.31;96114.34;5066849;28;20300;-70
2023/12/02 03:46:52;;;;;;;17.57;13.00;;;;;;;4.99;58.24;96116.13;5055607;28;20233;-71
2023/12/02 03:49:18;;;;;;;19.70;13.00;;;;;;;5.02;58.23;96128.84;5060773;28;20191;-71
2023/12/02 03:51:43;;;;;;;17.30;12.60;;;;;;;4.98;58.67;96130.06;5069387;28;20224;-71
2023/12/02 03:54:09;;;;;;;17.17;12.13;;;;;;;4.93;58.33;96127.09;5072785;28;20931;-71
2023/12/02 03:56:34;;;;;;;16.47;12.03;;;;;;;4.95;58.23;96126.97;5068201;28;20210;-72
2023/12/02 03:59:00;;;;;;;20.10;12.07;;;;;;;4.96;58.56;96136.38;5065122;28;20248;-71
2023/12/02 04:01:25;;;;;;;17.37;12.33;;;;;;;4.92;58.85;96131.47;5060484;28;20207;-70
2023/12/02 04:03:51;;;;;;;19.90;13.40;;;;;;;4.97;59.05;96138.03;5065087;28;20411;-71
2023/12/02 04:06:16;;;;;;;17.60;11.50;;;;;;;4.92;58.83;96130.63;5046244;28;20263;-73
2023/12/02 04:08:41;;;;;;;17.93;12.43;;;;;;;4.96;58.33;96132.00;5046747;28;20228;-70
2023/12/02 04:11:08;;;;;;;19.60;12.70;;;;;;;5.02;58.41;96131.44;5062705;28;20368;-70
2023/12/02 04:13:34;;;;;;;17.40;11.80;;;;;;;4.99;57.66;96146.47;5065281;28;20245;-70
2023/12/02 04:16:00;;;;;;;14.43;10.30;;;;;;;4.99;58.42;96147.28;5061209;28;20428;-71
2023/12/02 04:18:25;;;;;;;13.93;9.97;;;;;;;4.91;57.81;96153.19;5067959;28;20194;-69
2023/12/02 04:20:50;;;;;;;16.87;10.93;;;;;;;4.81;58.01;96164.56;5063706;28;20209;-70
2023/12/02 04:23:16;;;;;;;15.57;11.27;;;;;;;4.80;57.76;96168.13;5064814;28;20183;-72
2023/12/02 04:25:41;;;;;;;14.40;10.37;;;;;;;4.81;58.44;96174.94;5060644;28;20272;-70
2023/12/02 04:28:09;;;;;;;15.97;11.53;;;;;;;4.79;58.45;96188.09;5062349;28;20265;-71
2023/12/02 04:30:35;;;;;;;14.53;10.40;;;;;;;4.82;58.09;96194.75;5061310;28;22461;-71
2023/12/02 04:33:01;;;;;;;14.30;10.40;;;;;;;4.88;58.15;96189.81;5050006;28;20468;-71
2023/12/02 04:35:26;;;;;;;17.33;11.27;;;;;;;4.89;58.01;96188.06;5059315;28;20290;-71
2023/12/02 04:37:51;;;;;;;14.80;10.60;;;;;;;4.91;58.43;96196.53;5061420;28;20535;-70
2023/12/02 04:40:17;;;;;;;17.60;10.00;;;;;;;4.88;58.32;96212.38;5067551;28;20202;-71
2023/12/02 04:42:43;;;;;;;15.13;10.30;;;;;;;4.83;58.56;96210.22;5015266;28;20186;-70
2023/12/02 04:45:09;;;;;;;16.63;10.20;;;;;;;4.92;58.58;96218.91;5033176;28;20559;-71
2023/12/02 04:47:36;;;;;;;14.93;9.43;;;;;;;4.90;58.47;96215.66;5023325;28;20183;-71
2023/12/02 04:50:05;;;;;;;14.17;9.97;;;;;;;4.86;57.46;96215.09;5032660;28;20543;-71
2023/12/02 04:52:31;;;;;;;11.53;8.70;;;;;;;4.82;57.60;96218.13;5066386;28;20427;-71
2023/12/02 04:54:56;;;;;;;11.27;9.00;;;;;;;4.82;58.07;96218.13;5066957;28;20463;-72
2023/12/02 04:57:22;;;;;;;13.40;9.40;;;;;;;4.85;58.17;96228.25;5061027;28;20212;-71
2023/12/02 04:59:48;;;;;;;11.30;9.43;;;;;;;4.90;57.56;96226.06;5067144;28;20217;-73
2023/12/02 05:02:14;;;;;;;12.87;9.33;;;;;;;4.87;58.09;96239.31;5054423;28;20815;-74
2023/12/02 05:04:40;;;;;;;11.90;8.77;;;;;;;4.88;58.31;96233.16;5064316;28;20252;-71
2023/12/02 05:07:06;;;;;;;11.43;8.90;;;;;;;4.94;58.14;96236.97;5067411;28;20194;-72
2023/12/02 05:09:31;;;;;;;13.83;9.97;;;;;;;4.91;58.18;96235.47;5034805;28;20444;-71
2023/12/02 05:11:57;;;;;;;14.27;10.50;;;;;;;4.92;58.17;96240.53;5068546;28;20696;-70
2023/12/02 05:14:22;;;;;;;11.30;8.70;;;;;;;4.91;58.17;96235.47;5066645;28;20210;-71
2023/12/02 05:16:48;;;;;;;12.40;9.23;;;;;;;4.92;57.73;96234.50;5054085;28;20183;-73
2023/12/02 05:19:13;;;;;;;11.37;9.13;;;;;;;4.89;57.76;96245.19;5066631;28;20269;-70
2023/12/02 05:21:39;;;;;;;12.20;8.53;;;;;;;4.87;58.16;96239.31;5065832;28;20823;-72
2023/12/02 05:24:04;;;;;;;13.23;9.07;;;;;;;4.83;57.68;96235.34;5062868;28;20183;-72
2023/12/02 05:26:29;;;;;;;11.43;9.00;;;;;;;4.82;57.92;96236.31;5050259;28;20270;-70
2023/12/02 05:28:55;;;;;;;13.20;9.83;;;;;;;4.85;58.09;96243.81;5064097;28;20676;-71
2023/12/02 05:31:21;;;;;;;13.83;9.97;;;;;;;4.87;57.43;96242.72;5066661;28;20270;-73
2023/12/02 05:33:47;;;;;;;13.03;9.03;;;;;;;4.87;57.39;96241.91;5059779;28;20226;-72
2023/12/02 05:36:12;;;;;;;13.10;9.47;;;;;;;4.87;57.51;96240.13;5058218;28;20952;-73
2023/12/02 05:38:38;;;;;;;12.90;9.53;;;;;;;4.83;57.90;96245.72;5052906;28;20269;-71
2023/12/02 05:41:04;;;;;;;10.20;7.93;;;;;;;4.69;57.73;96252.19;5062314;28;20202;-72
2023/12/02 05:43:30;;;;;;;13.10;9.20;;;;;;;4.63;57.98;96261.34;5052248;28;20190;-71
2023/12/02 05:45:55;;;;;;;10.57;8.53;;;;;;;4.65;57.39;96267.22;5063318;28;20494;-72
2023/12/02 05:48:21;;;;;;;14.13;10.00;;;;;;;4.56;57.09;96275.81;5069688;28;20653;-73
2023/12/02 05:50:46;;;;;;;15.03;9.60;;;;;;;4.55;57.52;96280.19;5069982;28;20222;-73
2023/12/02 05:53:12;;;;;;;17.37;10.67;;;;;;;4.54;58.08;96288.09;5051771;28;20298;-72
2023/12/02 05:55:37;;;;;;;18.00;11.50;;;;;;;4.53;58.42;96292.47;5053552;28;20207;-71
2023/12/02 05:58:03;;;;;;;13.60;9.83;;;;;;;4.53;58.42;96289.91;5061804;28;20195;-71
2023/12/02 06:00:28;;;;;;;16.93;11.53;;;;;;;4.55;58.27;96294.94;5061992;28;20202;-73
2023/12/02 06:02:53;;;;;;;15.43;10.43;;;;;;;4.51;58.61;96303.97;5068371;28;20217;-72
2023/12/02 06:05:19;;;;;;;12.37;9.20;;;;;;;4.53;57.76;96307.25;5069969;28;20734;-72
2023/12/02 06:07:44;;;;;;;14.50;9.97;;;;;;;4.56;58.29;96306.97;5067809;28;20235;-73
2023/12/02 06:10:11;;;;;;;15.70;10.53;;;;;;;4.54;57.73;96311.47;5067724;28;20229;-71
2023/12/02 06:12:37;;;;;;;16.43;11.43;;;;;;;4.50;58.06;96303.13;5062125;28;20221;-71
2023/12/02 06:15:03;;;;;;;13.50;10.10;;;;;;;4.46;58.52;96312.97;5064845;28;20810;-70
2023/12/02 06:17:29;;;;;;;13.10;9.70;;;;;;;4.50;57.80;96307.50;5061503;28;20958;-71
2023/12/02 06:19:54;;;;;;;15.27;10.40;;;;;;;4.48;58.56;96312.03;5051292;28;20477;-71
2023/12/02 06:22:20;;;;;;;13.80;9.10;;;;;;;4.45;57.84;96305.34;5071264;28;20281;-72
2023/12/02 06:24:46;;;;;;;11.67;8.57;;;;;;;4.44;57.63;96307.09;5069939;28;20285;-72
2023/12/02 06:27:12;;;;;;;14.07;9.30;;;;;;;4.50;57.60;96315.31;5071267;28;20505;-71
2023/12/02 06:29:37;;;;;;;14.20;10.53;;;;;;;4.57;58.20;96316.38;5067139;28;20210;-70
2023/12/02 06:32:03;;;;;;;14.40;10.43;;;;;;;4.56;57.97;96309.56;5063758;28;20190;-75
2023/12/02 06:34:30;;;;;;;16.70;10.90;;;;;;;4.58;57.63;96318.84;5050239;28;20224;-71
2023/12/02 06:36:55;;;;;;;11.37;8.87;;;;;;;4.55;57.59;96318.28;5066615;28;20810;-72
2023/12/02 06:39:21;;;;;;;13.30;9.53;;;;;;;4.59;57.57;96328.28;5068233;28;20439;-72
2023/12/02 06:41:46;;;;;;;14.53;10.37;;;;;;;4.52;57.38;96327.19;5049045;28;20186;-70
2023/12/02 06:44:12;;;;;;;14.70;10.30;;;;;;;4.55;57.38;96332.09;5062753;28;20285;-70
2023/12/02 06:46:37;;;;;;;13.37;10.17;;;;;;;4.59;57.87;96332.66;5056479;28;20187;-72
2023/12/02 06:49:03;;;;;;;16.13;10.33;;;;;;;4.57;57.71;96334.56;5069391;28;20710;-70
2023/12/02 06:51:29;;;;;;;15.10;10.17;;;;;;;4.56;57.88;96343.28;5070172;28;20252;-71
2023/12/02 06:53:58;;;;;;;14.60;10.10;;;;;;;4.48;57.48;96341.38;5050145;28;20710;-69
2023/12/02 06:56:24;;;;;;;13.10;9.83;;;;;;;4.45;56.97;96350.25;5068821;28;20963;-71
2023/12/02 06:58:51;;;;;;;14.63;10.50;;;;;;;4.42;57.22;96358.28;5069527;28;20443;-73
2023/12/02 07:01:28;;;;;;;15.33;10.40;;;;;;;4.40;56.75;96360.22;5069811;28;20490;-70
2023/12/02 07:03:54;;;;;;;16.30;11.33;;;;;;;4.42;56.99;96370.47;5065726;28;20864;-71
2023/12/02 07:06:20;;;;;;;15.60;11.00;;;;;;;4.42;56.49;96371.28;5062843;28;20439;-70
2023/12/02 07:08:47;;;;;;;16.03;11.30;;;;;;;4.42;56.37;96376.47;5068210;28;20479;-71
2023/12/02 07:11:12;;;;;;;17.37;11.13;;;;;;;4.48;56.94;96384.69;5066479;28;20509;-72
2023/12/02 07:13:37;;;;;;;18.07;11.40;;;;;;;4.42;56.51;96383.44;5063017;28;21071;-71
2023/12/02 07:16:03;;;;;;;18.10;11.93;;;;;;;4.35;56.73;96383.16;5065204;28;20203;-72
2023/12/02 07:18:28;;;;;;;17.33;11.57;;;;;;;4.28;55.83;96403.63;5063808;28;20306;-71
2023/12/02 07:20:54;;;;;;;18.47;12.00;;;;;;;4.27;56.04;96404.56;5068402;28;20229;-71
2023/12/02 07:23:19;;;;;;;17.70;11.33;;;;;;;4.26;56.52;96396.94;5068450;28;20187;-71
2023/12/02 07:25:45;;;;;;;18.27;11.80;;;;;;;4.22;56.64;96403.31;5059933;28;20194;-70
2023/12/02 07:28:11;;;;;;;20.17;13.03;;;;;;;4.26;57.02;96400.31;5050414;28;20285;-71
2023/12/02 07:30:36;;;;;;;16.27;11.50;;;;;;;4.28;56.16;96402.81;5066773;28;20474;-71
2023/12/02 07:33:02;;;;;;;16.90;11.97;;;;;;;4.34;55.89;96404.03;5062970;28;20195;-71
2023/12/02 07:35:27;;;;;;;18.80;11.57;;;;;;;4.35;56.19;96403.91;5052677;28;20206;-72
2023/12/02 07:37:53;;;;;;;17.73;12.00;;;;;;;4.32;56.36;96417.13;5038762;28;20285;-70
2023/12/02 07:40:18;;;;;;;20.87;12.40;;;;;;;4.37;56.04;96412.38;5061328;28;20253;-71
2023/12/02 07:42:43;;;;;;;20.10;13.00;;;;;;;4.38;56.26;96427.00;5048075;28;20277;-71
2023/12/02 07:45:09;;;;;;;19.40;13.33;;;;;;;4.41;56.62;96426.72;5065924;28;20182;-70
2023/12/02 07:47:34;;;;;;;22.17;14.30;;;;;;;4.41;56.40;96436.28;5063464;28;20190;-70
2023/12/02 07:50:00;;;;;;;23.00;15.30;;;;;;;4.46;56.70;96437.53;5063669;28;20948;-70
2023/12/02 07:52:25;;;;;;;22.70;15.00;;;;;;;4.48;56.77;96439.16;5060289;28;20703;-70
2023/12/02 07:54:51;;;;;;;20.67;13.90;;;;;;;4.51;56.15;96450.09;5062594;28;20217;-70
2023/12/02 07:57:16;;;;;;;18.10;12.80;;;;;;;4.57;56.58;96454.78;5066341;28;20190;-71
2023/12/02 07:59:41;;;;;;;16.73;12.10;;;;;;;4.50;56.53;96460.63;5062729;28;20295;-70
2023/12/02 08:02:07;;;;;;;16.00;12.17;;;;;;;4.53;55.87;96458.56;5062109;28;20213;-71
2023/12/02 08:04:32;;;;;;;17.83;11.60;;;;;;;4.55;55.98;96464.47;5058236;28;20641;-71
2023/12/02 08:06:58;;;;;;;18.70;12.60;;;;;;;4.55;55.55;96461.88;5066554;28;20208;-69
2023/12/02 08:09:23;;;;;;;15.80;11.10;;;;;;;4.49;55.02;96472.75;5065542;28;20202;-70
2023/12/02 08:11:49;;;;;;;16.47;11.23;;;;;;;4.35;55.09;96475.75;5063430;28;20871;-68
2023/12/02 08:14:14;;;;;;;15.67;10.37;;;;;;;4.33;54.62;96475.03;5061550;28;20820;-69
2023/12/02 08:16:40;;;;;;;18.40;11.57;;;;;;;4.28;54.99;96470.25;5057571;28;20183;-73
2023/12/02 08:19:05;;;;;;;19.17;11.63;;;;;;;4.30;55.52;96487.31;5065604;28;20300;-72
2023/12/02 08:21:31;;;;;;;17.90;12.40;;;;;;;4.17;55.21;96491.06;5067944;28;20898;-71
2023/12/02 08:23:56;;;;;;;19.27;12.50;;;;;;;4.17;56.02;96488.47;5061791;28;20645;-71
2023/12/02 08:26:22;;;;;;;20.10;12.90;;;;;;;4.21;55.88;96489.88;5065565;28;20284;-71
2023/12/02 08:28:48;;;;;;;18.60;12.10;;;;;;;4.25;55.50;96491.25;5065022;28;20289;-71
2023/12/02 08:31:14;;;;;;;19.80;12.90;;;;;;;4.21;55.64;96497.66;5061670;28;20699;-72
2023/12/02 08:33:40;;;;;;;19.07;12.73;;;;;;;4.14;56.29;96502.53;5066350;28;20433;-70
2023/12/02 08:36:06;;;;;;;18.47;12.30;;;;;;;4.13;55.94;96519.88;5067050;28;20190;-70
2023/12/02 08:38:32;;;;;;;24.53;14.27;;;;;;;4.10;55.37;96517.53;5046911;28;20652;-72
2023/12/02 08:40:57;;;;;;;21.50;14.13;;;;;;;4.10;55.98;96524.47;5032667;28;20441;-72
2023/12/02 08:43:23;;;;;;;19.13;13.07;;;;;;;4.01;55.78;96518.31;5067814;28;20547;-73
2023/12/02 08:45:48;;;;;;;20.53;13.20;;;;;;;4.05;55.87;96524.06;5067210;28;20186;-69
2023/12/02 08:48:14;;;;;;;19.47;13.10;;;;;;;4.11;55.89;96537.34;5066170;28;20217;-70
2023/12/02 08:50:43;;;;;;;23.80;12.60;;;;;;;3.97;55.61;96530.69;5061714;28;20213;-72
2023/12/02 08:53:09;;;;;;;19.30;12.70;;;;;;;4.00;55.60;96530.44;5051682;28;20186;-71
2023/12/02 08:55:35;;;;;;;19.90;12.70;;;;;;;3.86;56.07;96543.72;5063607;28;20479;-71
2023/12/02 08:58:00;;;;;;;20.63;12.40;;;;;;;3.89;56.42;96550.44;5066640;28;20664;-70
2023/12/02 09:00:26;;;;;;;20.37;12.53;;;;;;;3.94;56.60;96558.66;5062827;28;20207;-70
2023/12/02 09:02:51;;;;;;;20.40;12.87;;;;;;;3.93;56.34;96560.44;5063518;28;20193;-69
2023/12/02 09:05:17;;;;;;;16.60;13.07;;;;;;;3.99;55.97;96559.91;5064166;28;20184;-70
2023/12/02 09:07:42;;;;;;;18.00;12.10;;;;;;;4.01;56.19;96562.38;5044298;28;20186;-71
2023/12/02 09:10:09;;;;;;;15.20;11.20;;;;;;;3.99;56.41;96570.28;5063367;28;20202;-71
2023/12/02 09:12:34;;;;;;;19.37;13.07;;;;;;;4.03;56.08;96573.47;5062584;28;20247;-71
2023/12/02 09:15:03;;;;;;;18.00;12.27;;;;;;;4.05;55.64;96573.31;5066362;28;20483;-70
2023/12/02 09:18:05;;;;;;;17.70;12.20;;;;;;;4.04;56.26;96587.25;5052005;28;20281;-72
2023/12/02 09:20:48;;;;;;;16.00;11.07;;;;;;;4.10;55.76;96591.91;5064654;28;20439;-70
2023/12/02 09:23:17;;;;;;;18.97;12.30;;;;;;;4.06;55.29;96588.75;5048348;28;20432;-70
2023/12/02 09:25:44;;;;;;;16.37;11.67;;;;;;;4.06;55.17;96593.94;5064449;28;20425;-71
2023/12/02 09:28:18;;;;;;;16.50;11.20;;;;;;;4.10;55.35;96597.09;5067393;28;20425;-70
2023/12/02 09:31:00;;;;;;;16.90;12.17;;;;;;;4.05;56.04;96602.66;5058810;28;20888;-70
2023/12/02 09:33:27;;;;;;;18.60;12.03;;;;;;;4.09;56.00;96611.03;5049921;28;20428;-70
2023/12/02 09:35:55;;;;;;;17.07;12.50;;;;;;;4.12;55.88;96606.41;5064903;28;20432;-71
2023/12/02 09:38:20;;;;;;;15.13;11.30;;;;;;;4.12;55.45;96619.38;5067995;28;20425;-70
2023/12/02 09:41:18;;;;;;;15.70;11.00;;;;;;;4.17;55.55;96625.94;5070056;28;20527;-70
2023/12/02 09:43:52;;;;;;;16.90;11.70;;;;;;;4.12;55.57;96632.34;5050236;28;20740;-73
2023/12/02 09:46:36;;;;;;;17.43;11.57;;;;;;;4.14;55.06;96625.28;5065970;28;20436;-71
2023/12/02 09:49:10;;;;;;;15.17;10.90;;;;;;;4.19;55.68;96618.88;5070048;28;20451;-71
2023/12/02 09:52:01;;;;;;;20.50;11.70;;;;;;;4.30;55.55;96623.97;5064694;28;20525;-71
2023/12/02 09:54:37;;;;;;;16.73;11.00;;;;;;;4.32;54.46;96616.91;5046921;28;20543;-71
2023/12/02 09:57:17;;;;;;;16.13;11.93;;;;;;;4.28;54.27;96613.75;5038743;28;20462;-72
2023/12/02 09:59:50;;;;;;;14.47;10.80;;;;;;;4.28;54.86;96615.53;5051411;28;20432;-72
2023/12/02 10:02:29;;;;;;;16.37;11.67;;;;;;;4.34;54.89;96619.38;5051246;28;20451;-71
2023/12/02 10:05:11;;;;;;;15.60;11.03;;;;;;;4.33;54.72;96618.53;5066971;28;20437;-71
2023/12/02 10:08:00;;;;;;;15.47;10.93;;;;;;;4.34;53.93;96622.78;5065366;28;20446;-71
2023/12/02 10:10:26;;;;;;;15.73;10.97;;;;;;;4.32;54.25;96622.09;5051748;28;20578;-70
2023/12/02 10:12:55;;;;;;;14.80;11.40;;;;;;;4.27;54.99;96629.44;5051108;28;20532;-70
2023/12/02 10:15:21;;;;;;;17.90;12.20;;;;;;;4.30;55.08;96629.16;5037157;28;20483;-71
2023/12/02 10:17:51;;;;;;;17.60;11.80;;;;;;;4.30;55.03;96636.94;5052214;28;20481;-70
2023/12/02 10:20:19;;;;;;;15.13;11.50;;;;;;;4.32;54.04;96636.84;5069254;28;21142;-71
2023/12/02 10:22:48;;;;;;;14.03;10.53;;;;;;;4.22;54.72;96641.97;5028563;28;20501;-70
2023/12/02 10:25:32;;;;;;;22.50;12.70;;;;;;;4.25;54.24;96641.72;5060641;28;20422;-70
2023/12/02 10:28:11;;;;;;;14.80;10.70;;;;;;;4.14;54.44;96640.00;5058620;28;20416;-70
2023/12/02 10:30:44;;;;;;;15.43;11.60;;;;;;;4.10;54.40;96643.78;5067661;28;20962;-71
2023/12/02 10:33:18;;;;;;;16.40;11.83;;;;;;;4.13;54.58;96640.94;5051591;28;20943;-69
2023/12/02 10:35:46;;;;;;;16.20;12.27;;;;;;;4.10;54.98;96642.03;5066918;28;20823;-69
2023/12/02 10:38:22;;;;;;;21.07;12.77;;;;;;;4.19;55.11;96647.41;5060601;28;20437;-71
2023/12/02 10:41:22;;;;;;;17.03;11.27;;;;;;;4.23;54.06;96653.97;5069130;28;21007;-71
2023/12/02 10:43:54;;;;;;;18.03;12.00;;;;;;;4.25;54.61;96659.88;5051249;28;20852;-71
2023/12/02 10:46:21;;;;;;;18.10;12.23;;;;;;;4.22;54.81;96663.53;5066183;28;20433;-71
2023/12/02 10:48:47;;;;;;;17.73;12.20;;;;;;;4.13;54.61;96665.13;5069509;28;20805;-71
2023/12/02 10:51:13;;;;;;;17.10;11.70;;;;;;;4.11;54.43;96659.22;5050771;28;20440;-70
2023/12/02 10:53:42;;;;;;;18.77;12.73;;;;;;;4.14;54.34;96664.19;5069335;28;20832;-71
2023/12/02 10:56:15;;;;;;;18.23;12.20;;;;;;;4.13;54.37;96666.88;5042742;28;20806;-70
2023/12/02 10:58:43;;;;;;;17.90;10.97;;;;;;;4.23;54.73;96669.56;5061873;28;20424;-70
2023/12/02 11:01:09;;;;;;;16.70;10.87;;;;;;;4.26;54.74;96669.31;5067079;28;20460;-70
2023/12/02 11:03:58;;;;;;;22.67;12.20;;;;;;;4.28;55.17;96665.63;5065515;28;20928;-71
2023/12/02 11:06:34;;;;;;;15.67;10.87;;;;;;;4.35;54.65;96673.72;5042292;28;20540;-72
2023/12/02 11:09:19;;;;;;;17.30;10.60;;;;;;;4.29;53.76;96684.59;5064836;28;20770;-71
2023/12/02 11:11:47;;;;;;;16.33;11.60;;;;;;;4.29;54.16;96684.59;5061546;28;20449;-72
2023/12/02 11:14:19;;;;;;;15.20;11.47;;;;;;;4.29;54.27;96692.38;5049963;28;20906;-72
2023/12/02 11:17:02;;;;;;;16.33;11.07;;;;;;;4.24;54.06;96691.94;5063751;28;20865;-70
2023/12/02 11:19:52;;;;;;;14.53;10.83;;;;;;;4.26;54.51;96696.06;5068353;28;20799;-72
2023/12/02 11:22:27;;;;;;;16.87;12.00;;;;;;;4.33;53.85;96698.97;5069340;28;20424;-73
2023/12/02 11:25:21;;;;;;;15.73;11.10;;;;;;;4.33;53.99;96696.38;5053410;28;20428;-72
2023/12/02 11:28:03;;;;;;;17.00;11.77;;;;;;;4.26;53.95;96700.44;5051717;28;20417;-70